sensor_id;sensor_type;location;lat;lon;timestamp;pressure;altitude;pressure_sealevel;temperature;humidity
77526;BME280;66627;29.424;-98.496;2023-03-04T00:01:47;98029.92;;;24.35;15.46
77526;BME280;66627;29.424;-98.496;2023-03-04T00:04:12;98033.89;;;24.88;16.10
77526;BME280;66627;29.424;-98.496;2023-03-04T00:06:38;98037.19;;;25.14;17.01
77526;BME280;66627;29.424;-98.496;2023-03-04T00:09:03;98037.34;;;25.06;15.85
77526;BME280;66627;29.424;-98.496;2023-03-04T00:11:28;98037.28;;;25.11;15.56
77526;BME280;66627;29.424;-98.496;2023-03-04T00:13:54;98041.19;;;24.65;15.73
77526;BME280;66627;29.424;-98.496;2023-03-04T00:16:18;98040.29;;;24.09;16.54
77526;BME280;66627;29.424;-98.496;2023-03-04T00:18:43;98046.31;;;23.57;17.41
77526;BME280;66627;29.424;-98.496;2023-03-04T00:21:09;98049.78;;;24.87;16.96
77526;BME280;66627;29.424;-98.496;2023-03-04T00:23:33;98053.38;;;24.25;16.94
77526;BME280;66627;29.424;-98.496;2023-03-04T00:25:59;98057.62;;;24.24;17.35
77526;BME280;66627;29.424;-98.496;2023-03-04T00:28:24;98055.63;;;23.91;17.24
77526;BME280;66627;29.424;-98.496;2023-03-04T00:30:49;98057.28;;;24.07;17.17
77526;BME280;66627;29.424;-98.496;2023-03-04T00:33:14;98058.67;;;23.54;17.63
77526;BME280;66627;29.424;-98.496;2023-03-04T00:35:40;98057.64;;;23.43;18.15
77526;BME280;66627;29.424;-98.496;2023-03-04T00:38:05;98060.50;;;23.78;18.52
77526;BME280;66627;29.424;-98.496;2023-03-04T00:40:30;98063.85;;;23.84;18.28
77526;BME280;66627;29.424;-98.496;2023-03-04T00:42:55;98064.59;;;23.47;18.01
77526;BME280;66627;29.424;-98.496;2023-03-04T00:45:20;98072.55;;;22.94;18.61
77526;BME280;66627;29.424;-98.496;2023-03-04T00:47:46;98071.77;;;22.86;18.42
77526;BME280;66627;29.424;-98.496;2023-03-04T00:50:11;98079.82;;;22.99;19.36
77526;BME280;66627;29.424;-98.496;2023-03-04T00:52:36;98080.52;;;22.72;18.93
77526;BME280;66627;29.424;-98.496;2023-03-04T00:55:02;98079.91;;;23.30;18.84
77526;BME280;66627;29.424;-98.496;2023-03-04T00:57:26;98085.23;;;23.22;18.50
77526;BME280;66627;29.424;-98.496;2023-03-04T00:59:52;98089.44;;;23.35;18.43
77526;BME280;66627;29.424;-98.496;2023-03-04T01:02:17;98094.99;;;22.78;19.01
77526;BME280;66627;29.424;-98.496;2023-03-04T01:04:42;98098.83;;;22.26;19.45
77526;BME280;66627;29.424;-98.496;2023-03-04T01:07:08;98103.63;;;22.74;18.79
77526;BME280;66627;29.424;-98.496;2023-03-04T01:09:32;98106.49;;;22.31;19.48
77526;BME280;66627;29.424;-98.496;2023-03-04T01:11:58;98108.97;;;21.69;20.01
77526;BME280;66627;29.424;-98.496;2023-03-04T01:14:23;98109.59;;;21.71;20.10
77526;BME280;66627;29.424;-98.496;2023-03-04T01:16:49;98114.01;;;22.33;19.29
77526;BME280;66627;29.424;-98.496;2023-03-04T01:19:14;98113.94;;;21.80;20.06
77526;BME280;66627;29.424;-98.496;2023-03-04T01:21:39;98119.06;;;22.26;20.78
77526;BME280;66627;29.424;-98.496;2023-03-04T01:24:05;98126.20;;;21.44;21.62
77526;BME280;66627;29.424;-98.496;2023-03-04T01:26:29;98124.87;;;21.00;23.35
77526;BME280;66627;29.424;-98.496;2023-03-04T01:28:55;98123.68;;;20.65;22.70
77526;BME280;66627;29.424;-98.496;2023-03-04T01:31:20;98126.61;;;21.08;22.11
77526;BME280;66627;29.424;-98.496;2023-03-04T01:33:46;98132.07;;;21.52;23.05
77526;BME280;66627;29.424;-98.496;2023-03-04T01:36:12;98136.55;;;21.51;22.32
77526;BME280;66627;29.424;-98.496;2023-03-04T01:38:37;98140.66;;;21.86;21.51
77526;BME280;66627;29.424;-98.496;2023-03-04T01:41:03;98142.69;;;21.60;21.96
77526;BME280;66627;29.424;-98.496;2023-03-04T01:43:29;98149.47;;;21.36;22.19
77526;BME280;66627;29.424;-98.496;2023-03-04T01:45:54;98151.18;;;21.56;20.97
77526;BME280;66627;29.424;-98.496;2023-03-04T01:48:23;98156.77;;;21.37;21.69
77526;BME280;66627;29.424;-98.496;2023-03-04T01:50:44;98161.95;;;21.46;22.17
77526;BME280;66627;29.424;-98.496;2023-03-04T01:53:17;98168.11;;;21.38;21.70
77526;BME280;66627;29.424;-98.496;2023-03-04T01:55:34;98174.53;;;21.07;21.56
77526;BME280;66627;29.424;-98.496;2023-03-04T01:57:59;98172.01;;;20.79;22.77
77526;BME280;66627;29.424;-98.496;2023-03-04T02:00:28;98176.30;;;21.11;23.11
77526;BME280;66627;29.424;-98.496;2023-03-04T02:02:51;98178.04;;;20.76;22.26
77526;BME280;66627;29.424;-98.496;2023-03-04T02:05:15;98177.49;;;20.97;22.53
77526;BME280;66627;29.424;-98.496;2023-03-04T02:07:41;98183.02;;;21.09;22.15
77526;BME280;66627;29.424;-98.496;2023-03-04T02:10:06;98188.17;;;20.39;22.41
77526;BME280;66627;29.424;-98.496;2023-03-04T02:12:30;98194.43;;;20.09;22.85
77526;BME280;66627;29.424;-98.496;2023-03-04T02:14:56;98196.59;;;20.13;22.69
77526;BME280;66627;29.424;-98.496;2023-03-04T02:17:24;98196.38;;;19.45;22.81
77526;BME280;66627;29.424;-98.496;2023-03-04T02:19:52;98202.03;;;20.49;22.79
77526;BME280;66627;29.424;-98.496;2023-03-04T02:22:12;98204.43;;;19.84;23.73
77526;BME280;66627;29.424;-98.496;2023-03-04T02:24:42;98209.02;;;20.06;23.24
77526;BME280;66627;29.424;-98.496;2023-03-04T02:27:03;98215.03;;;19.20;24.05
77526;BME280;66627;29.424;-98.496;2023-03-04T02:29:28;98220.16;;;19.40;24.15
77526;BME280;66627;29.424;-98.496;2023-03-04T02:31:54;98228.17;;;20.15;24.24
77526;BME280;66627;29.424;-98.496;2023-03-04T02:34:20;98236.48;;;18.69;24.65
77526;BME280;66627;29.424;-98.496;2023-03-04T02:36:45;98239.40;;;19.26;24.60
77526;BME280;66627;29.424;-98.496;2023-03-04T02:39:20;98244.37;;;19.21;24.14
77526;BME280;66627;29.424;-98.496;2023-03-04T02:41:34;98256.68;;;18.13;25.84
77526;BME280;66627;29.424;-98.496;2023-03-04T02:43:59;98264.03;;;18.47;25.68
77526;BME280;66627;29.424;-98.496;2023-03-04T02:46:24;98268.84;;;18.45;25.36
77526;BME280;66627;29.424;-98.496;2023-03-04T02:48:50;98271.54;;;17.33;26.50
77526;BME280;66627;29.424;-98.496;2023-03-04T02:51:15;98274.15;;;17.63;27.28
77526;BME280;66627;29.424;-98.496;2023-03-04T02:53:40;98277.78;;;17.95;26.80
77526;BME280;66627;29.424;-98.496;2023-03-04T02:56:05;98283.62;;;17.46;26.86
77526;BME280;66627;29.424;-98.496;2023-03-04T02:58:31;98287.16;;;17.41;28.09
77526;BME280;66627;29.424;-98.496;2023-03-04T03:00:56;98292.13;;;17.56;27.41
77526;BME280;66627;29.424;-98.496;2023-03-04T03:03:21;98293.57;;;18.33;27.32
77526;BME280;66627;29.424;-98.496;2023-03-04T03:05:47;98297.42;;;17.84;27.97
77526;BME280;66627;29.424;-98.496;2023-03-04T03:08:12;98296.58;;;17.72;28.18
77526;BME280;66627;29.424;-98.496;2023-03-04T03:10:37;98298.70;;;18.28;27.74
77526;BME280;66627;29.424;-98.496;2023-03-04T03:13:02;98301.75;;;17.43;27.82
77526;BME280;66627;29.424;-98.496;2023-03-04T03:15:27;98304.65;;;17.67;27.99
77526;BME280;66627;29.424;-98.496;2023-03-04T03:17:52;98309.63;;;16.91;29.05
77526;BME280;66627;29.424;-98.496;2023-03-04T03:20:18;98310.33;;;17.36;27.99
77526;BME280;66627;29.424;-98.496;2023-03-04T03:22:43;98323.38;;;16.92;28.62
77526;BME280;66627;29.424;-98.496;2023-03-04T03:25:10;98332.10;;;18.18;28.27
77526;BME280;66627;29.424;-98.496;2023-03-04T03:27:33;98333.63;;;17.17;28.20
77526;BME280;66627;29.424;-98.496;2023-03-04T03:29:59;98336.54;;;16.73;28.83
77526;BME280;66627;29.424;-98.496;2023-03-04T03:32:24;98338.33;;;17.18;28.79
77526;BME280;66627;29.424;-98.496;2023-03-04T03:34:48;98343.42;;;16.97;29.04
77526;BME280;66627;29.424;-98.496;2023-03-04T03:37:14;98345.93;;;16.36;29.55
77526;BME280;66627;29.424;-98.496;2023-03-04T03:39:39;98351.56;;;17.03;29.24
77526;BME280;66627;29.424;-98.496;2023-03-04T03:42:05;98358.10;;;17.31;28.70
77526;BME280;66627;29.424;-98.496;2023-03-04T03:44:30;98360.24;;;16.67;28.89
77526;BME280;66627;29.424;-98.496;2023-03-04T03:46:55;98360.34;;;16.69;29.28
77526;BME280;66627;29.424;-98.496;2023-03-04T03:49:20;98361.95;;;17.16;28.82
77526;BME280;66627;29.424;-98.496;2023-03-04T03:51:46;98363.39;;;16.89;29.21
77526;BME280;66627;29.424;-98.496;2023-03-04T03:54:12;98365.54;;;16.92;28.88
77526;BME280;66627;29.424;-98.496;2023-03-04T03:56:36;98363.45;;;16.39;29.17
77526;BME280;66627;29.424;-98.496;2023-03-04T03:59:02;98367.71;;;16.06;29.99
77526;BME280;66627;29.424;-98.496;2023-03-04T04:01:27;98361.71;;;17.35;30.00
77526;BME280;66627;29.424;-98.496;2023-03-04T04:03:52;98360.31;;;17.50;29.22
77526;BME280;66627;29.424;-98.496;2023-03-04T04:06:17;98362.64;;;17.61;28.74
77526;BME280;66627;29.424;-98.496;2023-03-04T04:08:43;98369.47;;;17.89;28.44
77526;BME280;66627;29.424;-98.496;2023-03-04T04:11:09;98372.66;;;17.65;28.48
77526;BME280;66627;29.424;-98.496;2023-03-04T04:13:33;98370.37;;;16.62;30.12
77526;BME280;66627;29.424;-98.496;2023-03-04T04:15:58;98372.90;;;17.14;29.08
77526;BME280;66627;29.424;-98.496;2023-03-04T04:18:23;98372.64;;;17.22;30.21
77526;BME280;66627;29.424;-98.496;2023-03-04T04:20:50;98373.26;;;16.62;29.90
77526;BME280;66627;29.424;-98.496;2023-03-04T04:23:14;98373.27;;;17.10;29.71
77526;BME280;66627;29.424;-98.496;2023-03-04T04:25:39;98377.18;;;17.53;29.59
77526;BME280;66627;29.424;-98.496;2023-03-04T04:28:04;98380.32;;;16.70;30.16
77526;BME280;66627;29.424;-98.496;2023-03-04T04:30:29;98380.20;;;16.86;29.52
77526;BME280;66627;29.424;-98.496;2023-03-04T04:32:55;98381.88;;;16.03;30.26
77526;BME280;66627;29.424;-98.496;2023-03-04T04:35:20;98384.86;;;16.25;30.68
77526;BME280;66627;29.424;-98.496;2023-03-04T04:37:45;98387.24;;;15.72;31.26
77526;BME280;66627;29.424;-98.496;2023-03-04T04:40:11;98394.39;;;16.39;31.52
77526;BME280;66627;29.424;-98.496;2023-03-04T04:42:35;98394.79;;;15.77;31.91
77526;BME280;66627;29.424;-98.496;2023-03-04T04:45:00;98396.57;;;14.95;32.73
77526;BME280;66627;29.424;-98.496;2023-03-04T04:47:26;98399.77;;;15.96;31.57
77526;BME280;66627;29.424;-98.496;2023-03-04T04:49:52;98406.13;;;15.18;32.08
77526;BME280;66627;29.424;-98.496;2023-03-04T04:52:16;98407.12;;;15.54;32.03
77526;BME280;66627;29.424;-98.496;2023-03-04T04:54:42;98409.89;;;14.50;32.91
77526;BME280;66627;29.424;-98.496;2023-03-04T04:57:07;98411.39;;;15.46;32.78
77526;BME280;66627;29.424;-98.496;2023-03-04T04:59:32;98407.78;;;15.85;33.01
77526;BME280;66627;29.424;-98.496;2023-03-04T05:01:57;98410.29;;;15.62;32.71
77526;BME280;66627;29.424;-98.496;2023-03-04T05:04:23;98406.56;;;15.74;31.54
77526;BME280;66627;29.424;-98.496;2023-03-04T05:06:48;98406.77;;;15.83;32.17
77526;BME280;66627;29.424;-98.496;2023-03-04T05:09:13;98412.77;;;15.09;32.53
77526;BME280;66627;29.424;-98.496;2023-03-04T05:11:39;98415.46;;;16.26;31.57
77526;BME280;66627;29.424;-98.496;2023-03-04T05:14:04;98416.82;;;16.01;31.70
77526;BME280;66627;29.424;-98.496;2023-03-04T05:16:29;98415.51;;;16.16;31.54
77526;BME280;66627;29.424;-98.496;2023-03-04T05:18:55;98416.14;;;15.83;32.06
77526;BME280;66627;29.424;-98.496;2023-03-04T05:21:20;98421.53;;;16.49;31.58
77526;BME280;66627;29.424;-98.496;2023-03-04T05:23:45;98426.78;;;16.34;31.34
77526;BME280;66627;29.424;-98.496;2023-03-04T05:26:13;98428.16;;;16.00;31.39
77526;BME280;66627;29.424;-98.496;2023-03-04T05:28:36;98432.43;;;15.13;32.29
77526;BME280;66627;29.424;-98.496;2023-03-04T05:31:02;98426.71;;;15.19;32.62
77526;BME280;66627;29.424;-98.496;2023-03-04T05:33:27;98429.40;;;15.36;33.03
77526;BME280;66627;29.424;-98.496;2023-03-04T05:35:52;98427.18;;;15.52;31.92
77526;BME280;66627;29.424;-98.496;2023-03-04T05:38:18;98420.77;;;15.73;32.78
77526;BME280;66627;29.424;-98.496;2023-03-04T05:40:43;98417.93;;;15.51;32.55
77526;BME280;66627;29.424;-98.496;2023-03-04T05:43:08;98427.34;;;14.72;32.67
77526;BME280;66627;29.424;-98.496;2023-03-04T05:45:33;98432.94;;;15.32;33.40
77526;BME280;66627;29.424;-98.496;2023-03-04T05:47:58;98435.58;;;15.47;32.54
77526;BME280;66627;29.424;-98.496;2023-03-04T05:50:24;98435.15;;;15.81;32.55
77526;BME280;66627;29.424;-98.496;2023-03-04T05:52:49;98435.22;;;14.60;33.20
77526;BME280;66627;29.424;-98.496;2023-03-04T05:55:14;98435.44;;;16.19;32.32
77526;BME280;66627;29.424;-98.496;2023-03-04T05:57:39;98436.93;;;15.56;31.92
77526;BME280;66627;29.424;-98.496;2023-03-04T06:00:05;98442.19;;;15.07;33.15
77526;BME280;66627;29.424;-98.496;2023-03-04T06:02:29;98448.30;;;15.39;32.48
77526;BME280;66627;29.424;-98.496;2023-03-04T06:04:54;98444.68;;;16.40;31.70
77526;BME280;66627;29.424;-98.496;2023-03-04T06:07:20;98443.10;;;16.45;31.74
77526;BME280;66627;29.424;-98.496;2023-03-04T06:09:45;98449.95;;;16.26;31.41
77526;BME280;66627;29.424;-98.496;2023-03-04T06:12:11;98453.86;;;16.56;31.53
77526;BME280;66627;29.424;-98.496;2023-03-04T06:14:37;98451.37;;;16.51;31.30
77526;BME280;66627;29.424;-98.496;2023-03-04T06:17:01;98456.59;;;16.60;32.27
77526;BME280;66627;29.424;-98.496;2023-03-04T06:19:26;98458.65;;;16.29;32.31
77526;BME280;66627;29.424;-98.496;2023-03-04T06:21:52;98461.70;;;16.80;31.74
77526;BME280;66627;29.424;-98.496;2023-03-04T06:24:17;98466.84;;;17.01;31.07
77526;BME280;66627;29.424;-98.496;2023-03-04T06:26:42;98468.26;;;16.96;31.89
77526;BME280;66627;29.424;-98.496;2023-03-04T06:29:07;98473.90;;;16.23;32.07
77526;BME280;66627;29.424;-98.496;2023-03-04T06:31:32;98473.39;;;15.99;32.69
77526;BME280;66627;29.424;-98.496;2023-03-04T06:33:58;98472.64;;;16.21;31.90
77526;BME280;66627;29.424;-98.496;2023-03-04T06:36:23;98475.63;;;16.29;32.75
77526;BME280;66627;29.424;-98.496;2023-03-04T06:38:48;98479.17;;;16.57;32.62
77526;BME280;66627;29.424;-98.496;2023-03-04T06:41:13;98479.70;;;16.74;32.41
77526;BME280;66627;29.424;-98.496;2023-03-04T06:43:39;98476.63;;;16.46;31.57
77526;BME280;66627;29.424;-98.496;2023-03-04T06:46:04;98477.72;;;16.26;32.54
77526;BME280;66627;29.424;-98.496;2023-03-04T06:48:29;98484.97;;;16.15;32.06
77526;BME280;66627;29.424;-98.496;2023-03-04T06:50:54;98496.10;;;16.37;33.11
77526;BME280;66627;29.424;-98.496;2023-03-04T06:53:19;98503.54;;;16.43;33.19
77526;BME280;66627;29.424;-98.496;2023-03-04T06:55:45;98509.92;;;16.52;33.11
77526;BME280;66627;29.424;-98.496;2023-03-04T06:58:10;98515.80;;;15.83;33.89
77526;BME280;66627;29.424;-98.496;2023-03-04T07:00:35;98507.97;;;16.84;33.14
77526;BME280;66627;29.424;-98.496;2023-03-04T07:03:00;98515.05;;;15.93;33.33
77526;BME280;66627;29.424;-98.496;2023-03-04T07:05:26;98519.67;;;16.52;32.82
77526;BME280;66627;29.424;-98.496;2023-03-04T07:07:51;98519.91;;;16.68;32.24
77526;BME280;66627;29.424;-98.496;2023-03-04T07:10:16;98524.87;;;16.19;33.87
77526;BME280;66627;29.424;-98.496;2023-03-04T07:12:41;98525.10;;;16.06;34.33
77526;BME280;66627;29.424;-98.496;2023-03-04T07:15:07;98526.09;;;16.26;34.55
77526;BME280;66627;29.424;-98.496;2023-03-04T07:17:31;98532.18;;;15.24;34.78
77526;BME280;66627;29.424;-98.496;2023-03-04T07:19:57;98530.47;;;14.53;34.71
77526;BME280;66627;29.424;-98.496;2023-03-04T07:22:22;98530.81;;;15.08;34.46
77526;BME280;66627;29.424;-98.496;2023-03-04T07:24:47;98530.36;;;15.74;34.17
77526;BME280;66627;29.424;-98.496;2023-03-04T07:27:13;98533.22;;;15.40;35.21
77526;BME280;66627;29.424;-98.496;2023-03-04T07:29:39;98532.13;;;15.46;34.67
77526;BME280;66627;29.424;-98.496;2023-03-04T07:32:07;98531.51;;;15.31;34.97
77526;BME280;66627;29.424;-98.496;2023-03-04T07:34:29;98530.12;;;15.39;34.45
77526;BME280;66627;29.424;-98.496;2023-03-04T07:36:54;98531.44;;;15.08;35.10
77526;BME280;66627;29.424;-98.496;2023-03-04T07:39:20;98534.39;;;15.23;34.78
77526;BME280;66627;29.424;-98.496;2023-03-04T07:41:44;98536.71;;;15.33;34.97
77526;BME280;66627;29.424;-98.496;2023-03-04T07:44:11;98538.39;;;15.22;34.98
77526;BME280;66627;29.424;-98.496;2023-03-04T07:46:35;98535.92;;;15.17;35.40
77526;BME280;66627;29.424;-98.496;2023-03-04T07:49:01;98536.51;;;14.76;37.01
77526;BME280;66627;29.424;-98.496;2023-03-04T07:51:27;98539.08;;;15.48;35.45
77526;BME280;66627;29.424;-98.496;2023-03-04T07:53:55;98540.85;;;14.97;35.78
77526;BME280;66627;29.424;-98.496;2023-03-04T07:56:19;98540.88;;;15.24;35.46
77526;BME280;66627;29.424;-98.496;2023-03-04T07:58:43;98539.47;;;14.93;36.75
77526;BME280;66627;29.424;-98.496;2023-03-04T08:01:12;98537.83;;;14.97;35.70
77526;BME280;66627;29.424;-98.496;2023-03-04T08:03:33;98544.94;;;14.52;36.64
77526;BME280;66627;29.424;-98.496;2023-03-04T08:05:57;98547.87;;;14.29;37.32
77526;BME280;66627;29.424;-98.496;2023-03-04T08:08:23;98548.17;;;14.39;36.39
77526;BME280;66627;29.424;-98.496;2023-03-04T08:10:49;98541.70;;;13.88;37.20
77526;BME280;66627;29.424;-98.496;2023-03-04T08:13:13;98539.91;;;14.38;37.16
77526;BME280;66627;29.424;-98.496;2023-03-04T08:15:40;98542.82;;;13.63;38.08
77526;BME280;66627;29.424;-98.496;2023-03-04T08:18:04;98538.78;;;14.25;38.15
77526;BME280;66627;29.424;-98.496;2023-03-04T08:20:30;98533.76;;;13.94;37.16
77526;BME280;66627;29.424;-98.496;2023-03-04T08:22:55;98533.64;;;13.30;38.85
77526;BME280;66627;29.424;-98.496;2023-03-04T08:25:20;98533.76;;;13.79;38.76
77526;BME280;66627;29.424;-98.496;2023-03-04T08:27:45;98543.39;;;13.89;38.39
77526;BME280;66627;29.424;-98.496;2023-03-04T08:30:11;98551.18;;;13.83;37.63
77526;BME280;66627;29.424;-98.496;2023-03-04T08:32:36;98549.69;;;13.70;37.65
77526;BME280;66627;29.424;-98.496;2023-03-04T08:35:02;98552.66;;;13.53;37.77
77526;BME280;66627;29.424;-98.496;2023-03-04T08:37:27;98554.77;;;13.95;37.65
77526;BME280;66627;29.424;-98.496;2023-03-04T08:39:52;98550.81;;;13.74;37.98
77526;BME280;66627;29.424;-98.496;2023-03-04T08:42:17;98546.07;;;13.80;37.93
77526;BME280;66627;29.424;-98.496;2023-03-04T08:44:43;98544.10;;;13.21;38.45
77526;BME280;66627;29.424;-98.496;2023-03-04T08:47:09;98542.43;;;13.66;38.18
77526;BME280;66627;29.424;-98.496;2023-03-04T08:49:35;98541.72;;;13.45;39.19
77526;BME280;66627;29.424;-98.496;2023-03-04T08:52:00;98543.38;;;13.63;39.46
77526;BME280;66627;29.424;-98.496;2023-03-04T08:54:26;98543.65;;;14.07;38.14
77526;BME280;66627;29.424;-98.496;2023-03-04T08:56:51;98540.33;;;13.11;39.35
77526;BME280;66627;29.424;-98.496;2023-03-04T08:59:18;98542.82;;;13.53;38.92
77526;BME280;66627;29.424;-98.496;2023-03-04T09:01:42;98536.55;;;14.25;38.76
77526;BME280;66627;29.424;-98.496;2023-03-04T09:04:07;98533.36;;;14.49;38.37
77526;BME280;66627;29.424;-98.496;2023-03-04T09:06:33;98538.04;;;13.20;39.07
77526;BME280;66627;29.424;-98.496;2023-03-04T09:08:58;98536.88;;;13.44;39.36
77526;BME280;66627;29.424;-98.496;2023-03-04T09:11:23;98540.68;;;13.53;38.83
77526;BME280;66627;29.424;-98.496;2023-03-04T09:13:49;98542.40;;;13.45;39.46
77526;BME280;66627;29.424;-98.496;2023-03-04T09:16:14;98544.40;;;13.80;39.30
77526;BME280;66627;29.424;-98.496;2023-03-04T09:18:40;98552.29;;;12.95;39.95
77526;BME280;66627;29.424;-98.496;2023-03-04T09:21:05;98553.69;;;13.57;39.23
77526;BME280;66627;29.424;-98.496;2023-03-04T09:23:30;98554.70;;;13.39;39.34
77526;BME280;66627;29.424;-98.496;2023-03-04T09:25:55;98556.85;;;13.52;38.81
77526;BME280;66627;29.424;-98.496;2023-03-04T09:28:21;98554.92;;;13.76;39.58
77526;BME280;66627;29.424;-98.496;2023-03-04T09:30:46;98554.12;;;13.59;39.74
77526;BME280;66627;29.424;-98.496;2023-03-04T09:33:12;98554.08;;;12.96;40.47
77526;BME280;66627;29.424;-98.496;2023-03-04T09:35:37;98554.57;;;13.32;40.13
77526;BME280;66627;29.424;-98.496;2023-03-04T09:38:03;98555.98;;;13.64;39.17
77526;BME280;66627;29.424;-98.496;2023-03-04T09:40:31;98557.77;;;12.92;39.48
77526;BME280;66627;29.424;-98.496;2023-03-04T09:42:55;98555.89;;;13.38;39.45
77526;BME280;66627;29.424;-98.496;2023-03-04T09:45:22;98557.16;;;13.71;39.30
77526;BME280;66627;29.424;-98.496;2023-03-04T09:47:44;98557.62;;;13.14;39.45
77526;BME280;66627;29.424;-98.496;2023-03-04T09:50:11;98560.27;;;13.24;39.63
77526;BME280;66627;29.424;-98.496;2023-03-04T09:52:46;98558.43;;;13.18;39.97
77526;BME280;66627;29.424;-98.496;2023-03-04T09:55:05;98559.36;;;12.69;40.54
77526;BME280;66627;29.424;-98.496;2023-03-04T09:57:35;98560.65;;;12.61;40.47
77526;BME280;66627;29.424;-98.496;2023-03-04T09:59:55;98560.06;;;12.80;40.58
77526;BME280;66627;29.424;-98.496;2023-03-04T10:02:19;98558.83;;;11.98;41.62
77526;BME280;66627;29.424;-98.496;2023-03-04T10:04:47;98559.32;;;12.22;41.09
77526;BME280;66627;29.424;-98.496;2023-03-04T10:07:08;98562.97;;;12.34;41.51
77526;BME280;66627;29.424;-98.496;2023-03-04T10:09:41;98567.08;;;12.56;41.68
77526;BME280;66627;29.424;-98.496;2023-03-04T10:12:02;98575.38;;;12.44;40.75
77526;BME280;66627;29.424;-98.496;2023-03-04T10:14:34;98577.03;;;13.09;40.02
77526;BME280;66627;29.424;-98.496;2023-03-04T10:16:54;98579.77;;;12.08;41.67
77526;BME280;66627;29.424;-98.496;2023-03-04T10:19:26;98582.49;;;12.13;41.59
77526;BME280;66627;29.424;-98.496;2023-03-04T10:21:43;98590.71;;;12.34;41.07
77526;BME280;66627;29.424;-98.496;2023-03-04T10:24:10;98590.05;;;13.46;39.95
77526;BME280;66627;29.424;-98.496;2023-03-04T10:26:31;98587.13;;;12.73;40.28
77526;BME280;66627;29.424;-98.496;2023-03-04T10:28:56;98588.03;;;12.98;39.87
77526;BME280;66627;29.424;-98.496;2023-03-04T10:31:29;98587.46;;;12.57;40.27
77526;BME280;66627;29.424;-98.496;2023-03-04T10:33:48;98592.64;;;11.57;42.11
77526;BME280;66627;29.424;-98.496;2023-03-04T10:36:25;98594.94;;;12.37;41.49
77526;BME280;66627;29.424;-98.496;2023-03-04T10:38:40;98602.09;;;12.13;42.31
77526;BME280;66627;29.424;-98.496;2023-03-04T10:41:11;98604.04;;;12.53;40.86
77526;BME280;66627;29.424;-98.496;2023-03-04T10:43:29;98608.12;;;11.58;42.64
77526;BME280;66627;29.424;-98.496;2023-03-04T10:45:56;98609.43;;;11.89;41.93
77526;BME280;66627;29.424;-98.496;2023-03-04T10:48:22;98605.80;;;12.42;41.27
77526;BME280;66627;29.424;-98.496;2023-03-04T10:50:45;98611.59;;;12.74;40.60
77526;BME280;66627;29.424;-98.496;2023-03-04T10:55:42;98611.33;;;13.09;40.21
77526;BME280;66627;29.424;-98.496;2023-03-04T10:58:03;98613.82;;;11.97;41.28
77526;BME280;66627;29.424;-98.496;2023-03-04T11:00:28;98618.66;;;11.83;42.66
77526;BME280;66627;29.424;-98.496;2023-03-04T11:02:51;98626.92;;;11.26;43.98
77526;BME280;66627;29.424;-98.496;2023-03-04T11:05:19;98630.94;;;10.66;45.17
77526;BME280;66627;29.424;-98.496;2023-03-04T11:07:44;98633.74;;;10.62;45.38
77526;BME280;66627;29.424;-98.496;2023-03-04T11:10:09;98640.08;;;9.71;46.64
77526;BME280;66627;29.424;-98.496;2023-03-04T11:12:33;98643.28;;;10.38;46.15
77526;BME280;66627;29.424;-98.496;2023-03-04T11:14:58;98652.56;;;10.80;44.78
77526;BME280;66627;29.424;-98.496;2023-03-04T11:17:24;98656.02;;;10.81;44.62
77526;BME280;66627;29.424;-98.496;2023-03-04T11:19:51;98650.25;;;11.88;42.50
77526;BME280;66627;29.424;-98.496;2023-03-04T11:22:16;98649.22;;;12.07;42.16
77526;BME280;66627;29.424;-98.496;2023-03-04T11:24:39;98649.30;;;12.08;42.38
77526;BME280;66627;29.424;-98.496;2023-03-04T11:27:09;98657.99;;;11.32;43.74
77526;BME280;66627;29.424;-98.496;2023-03-04T11:29:34;98656.10;;;12.07;42.28
77526;BME280;66627;29.424;-98.496;2023-03-04T11:32:01;98662.31;;;11.74;43.25
77526;BME280;66627;29.424;-98.496;2023-03-04T11:34:30;98661.23;;;11.92;42.79
77526;BME280;66627;29.424;-98.496;2023-03-04T11:36:53;98657.39;;;12.27;41.76
77526;BME280;66627;29.424;-98.496;2023-03-04T11:39:19;98655.53;;;12.35;41.63
77526;BME280;66627;29.424;-98.496;2023-03-04T11:41:39;98653.59;;;12.46;41.97
77526;BME280;66627;29.424;-98.496;2023-03-04T11:44:02;98649.85;;;12.11;41.84
77526;BME280;66627;29.424;-98.496;2023-03-04T11:46:40;98656.10;;;11.43;43.65
77526;BME280;66627;29.424;-98.496;2023-03-04T11:48:59;98657.36;;;11.62;43.09
77526;BME280;66627;29.424;-98.496;2023-03-04T11:51:23;98658.00;;;11.91;42.65
77526;BME280;66627;29.424;-98.496;2023-03-04T11:53:53;98665.11;;;11.72;42.87
77526;BME280;66627;29.424;-98.496;2023-03-04T11:56:20;98666.58;;;10.76;44.93
77526;BME280;66627;29.424;-98.496;2023-03-04T11:58:50;98675.90;;;11.19;43.56
77526;BME280;66627;29.424;-98.496;2023-03-04T12:01:04;98682.41;;;10.45;45.42
77526;BME280;66627;29.424;-98.496;2023-03-04T12:05:57;98684.74;;;10.34;44.89
77526;BME280;66627;29.424;-98.496;2023-03-04T12:08:28;98693.96;;;10.01;45.79
77526;BME280;66627;29.424;-98.496;2023-03-04T12:10:45;98696.10;;;9.37;46.52
77526;BME280;66627;29.424;-98.496;2023-03-04T12:13:17;98700.98;;;9.90;47.53
77526;BME280;66627;29.424;-98.496;2023-03-04T12:15:35;98704.73;;;9.72;46.77
77526;BME280;66627;29.424;-98.496;2023-03-04T12:18:06;98703.09;;;10.35;46.54
77526;BME280;66627;29.424;-98.496;2023-03-04T12:20:31;98708.28;;;10.27;46.21
77526;BME280;66627;29.424;-98.496;2023-03-04T12:22:51;98715.63;;;10.48;45.38
77526;BME280;66627;29.424;-98.496;2023-03-04T12:27:41;98721.07;;;10.27;46.42
77526;BME280;66627;29.424;-98.496;2023-03-04T12:30:08;98727.82;;;10.29;45.75
77526;BME280;66627;29.424;-98.496;2023-03-04T12:32:35;98733.22;;;10.31;45.49
77526;BME280;66627;29.424;-98.496;2023-03-04T12:35:07;98733.25;;;10.47;44.99
77526;BME280;66627;29.424;-98.496;2023-03-04T12:37:31;98736.61;;;10.93;44.76